Time;durP1;ratioP1;P1;durP2;ratioP2;P2;SDS_P1;SDS_P2;PMS_P1;PMS_P2;Temp;Humidity;BMP_temperature;BMP_pressure;BME280_temperature;BME280_humidity;BME280_pressure;Samples;Min_cycle;Max_cycle;Signal;HPM_P1;HPM_P2
2023/11/06 00:01:05;;;;;;;1.80;1.40;;;;;;;10.39;88.41;96775.34;105656;1251;61183;-27
2023/11/06 00:03:32;;;;;;;2.50;1.80;;;;;;;10.58;86.78;96776.91;105803;1262;61154;-27
2023/11/06 00:05:59;;;;;;;5.80;1.80;;;;;;;10.55;86.53;96777.84;105701;1251;73689;-27
2023/11/06 00:10:14;;;;;;;2.20;1.50;;;;;;;10.19;87.51;96781.05;102657;1291;600064;-25
2023/11/06 00:12:41;;;;;;;5.50;1.10;;;;;;;10.02;88.49;96790.05;104868;1270;61177;-26
2023/11/06 00:15:10;;;;;;;5.20;1.50;;;;;;;10.40;87.24;96790.21;104841;1271;61145;-26
2023/11/06 00:17:37;;;;;;;3.10;1.50;;;;;;;10.51;86.04;96797.45;104838;1271;70987;-26
2023/11/06 00:20:10;;;;;;;1.80;1.50;;;;;;;10.34;86.23;96801.52;105033;1269;73093;-26
2023/11/06 00:22:41;;;;;;;4.50;1.70;;;;;;;10.09;87.06;96809.23;104772;1267;3258180;-26
2023/11/06 00:25:10;;;;;;;4.00;1.20;;;;;;;9.82;88.13;96810.60;105178;1264;61199;-26
2023/11/06 00:27:38;;;;;;;2.20;1.50;;;;;;;9.97;88.31;96813.05;105219;1266;61119;-26
2023/11/06 00:30:07;;;;;;;4.00;1.90;;;;;;;10.26;86.74;96808.60;105185;1264;61082;-26
2023/11/06 00:32:35;;;;;;;1.50;1.30;;;;;;;10.25;86.03;96804.75;105743;1254;72284;-26
2023/11/06 00:35:03;;;;;;;3.30;1.50;;;;;;;10.07;86.38;96814.64;105874;1255;73282;-26
2023/11/06 00:37:31;;;;;;;7.00;2.10;;;;;;;9.81;87.26;96814.86;105695;1254;72655;-26
2023/11/06 00:39:59;;;;;;;2.10;0.90;;;;;;;9.57;88.23;96814.98;105864;1254;61180;-26
2023/11/06 00:50:11;;;;;;;2.00;1.40;;;;;;;10.01;85.80;96823.30;102681;1295;600187;-26
2023/11/06 00:52:38;;;;;;;3.00;1.40;;;;;;;9.71;86.82;96831.93;104844;1266;61171;-26
2023/11/06 00:55:07;;;;;;;1.00;0.90;;;;;;;9.48;87.63;96829.51;104838;1264;61165;-26
2023/11/06 00:57:34;;;;;;;1.10;1.00;;;;;;;9.77;87.21;96830.16;104889;1266;70987;-26
2023/11/06 01:00:04;;;;;;;1.20;1.10;;;;;;;9.99;85.65;96835.67;104820;1269;73162;-26
2023/11/06 01:10:14;;;;;;;1.40;0.90;;;;;;;9.58;87.65;96848.39;102582;1292;599558;-26
2023/11/06 01:12:42;;;;;;;3.60;1.20;;;;;;;9.89;85.82;96849.13;105128;1270;61270;-26
2023/11/06 01:15:10;;;;;;;3.70;1.20;;;;;;;9.87;85.10;96849.91;105023;1266;61050;-25
2023/11/06 01:17:37;;;;;;;2.10;1.30;;;;;;;9.66;85.56;96852.56;104894;1265;71007;-26
2023/11/06 01:20:06;;;;;;;2.40;1.10;;;;;;;9.40;86.51;96852.38;104829;1270;74329;-26
2023/11/06 01:22:34;;;;;;;2.30;1.00;;;;;;;9.23;87.69;96855.79;105090;1267;72678;-26
2023/11/06 01:25:09;;;;;;;3.10;1.30;;;;;;;9.71;86.23;96859.09;102592;1266;61196;-26
2023/11/06 01:27:37;;;;;;;1.60;1.20;;;;;;;9.86;84.85;96865.90;104972;1264;61212;-26
2023/11/06 01:30:06;;;;;;;2.00;1.00;;;;;;;9.72;84.93;96866.46;104796;1264;71041;-25
2023/11/06 01:32:34;;;;;;;1.30;1.10;;;;;;;9.49;85.38;96869.30;104950;1266;74308;-25
2023/11/06 01:35:02;;;;;;;2.50;1.30;;;;;;;9.21;86.39;96867.64;105592;1260;72357;-25
2023/11/06 01:37:30;;;;;;;0.70;0.70;;;;;;;9.19;87.11;96871.92;105549;1256;61013;-27
2023/11/06 01:39:58;;;;;;;1.70;1.10;;;;;;;9.57;85.51;96875.20;105579;1262;61115;-27
2023/11/06 01:42:26;;;;;;;2.80;1.80;;;;;;;9.64;84.18;96877.92;105562;1257;71484;-27
2023/11/06 01:44:54;;;;;;;1.80;1.00;;;;;;;9.48;84.71;96873.95;105562;1263;74348;-26
2023/11/06 01:47:22;;;;;;;3.00;0.90;;;;;;;9.25;85.26;96871.61;105556;1256;71385;-26
2023/11/06 01:49:50;;;;;;;0.70;0.60;;;;;;;9.06;86.25;96880.55;105276;1265;61166;-27
2023/11/06 01:52:18;;;;;;;1.10;0.70;;;;;;;9.41;85.19;96886.88;105537;1261;61215;-27
2023/11/06 01:54:45;;;;;;;1.30;0.80;;;;;;;9.65;83.42;96884.17;105643;1256;73486;-27
2023/11/06 02:03:53;;;;;;;1.10;0.70;;;;;;;9.23;84.56;96886.23;102526;1296;599569;-26
2023/11/06 02:06:23;;;;;;;1.50;0.80;;;;;;;9.57;83.17;96890.42;104863;1270;61208;-26
2023/11/06 02:08:50;;;;;;;2.30;1.00;;;;;;;9.87;81.06;96891.08;104821;1265;61087;-27
2023/11/06 02:11:18;;;;;;;1.60;0.90;;;;;;;9.79;80.68;96888.15;104818;1271;72457;-27
2023/11/06 02:13:45;;;;;;;1.50;1.10;;;;;;;9.63;81.43;96886.02;104739;1272;74412;-26
2023/11/06 02:16:13;;;;;;;0.70;0.60;;;;;;;9.39;82.23;96890.72;104830;1266;72425;-26
2023/11/06 02:18:41;;;;;;;1.20;0.80;;;;;;;9.14;83.01;96898.61;102362;1270;61296;-26
2023/11/06 02:21:09;;;;;;;1.00;0.60;;;;;;;9.01;83.99;96898.27;104915;1269;61082;-26
2023/11/06 02:23:37;;;;;;;2.70;0.70;;;;;;;9.50;82.43;96899.33;105074;1269;61195;-25
2023/11/06 02:33:44;;;;;;;1.10;0.70;;;;;;;9.45;80.82;96910.27;102544;1297;599579;-25
2023/11/06 02:36:12;;;;;;;1.00;0.80;;;;;;;9.18;81.96;96918.48;104827;1271;61139;-25
2023/11/06 02:38:39;;;;;;;1.30;0.60;;;;;;;9.10;82.68;96919.33;104816;1265;61057;-25
2023/11/06 02:41:08;;;;;;;0.90;0.60;;;;;;;9.55;81.65;96921.64;104780;1272;70951;-25
2023/11/06 02:51:23;;;;;;;1.10;0.80;;;;;;;9.30;81.73;96939.43;102742;1291;600239;-27
2023/11/06 03:00:45;;;;;;;1.80;0.80;;;;;;;9.65;81.20;96949.70;102667;1292;600233;-27
2023/11/06 03:03:13;;;;;;;0.90;0.80;;;;;;;9.60;80.87;96954.34;104871;1267;61184;-27
2023/11/06 03:13:24;;;;;;;1.40;0.60;;;;;;;8.88;83.80;96974.36;102642;1291;600032;-26
2023/11/06 03:15:51;;;;;;;1.40;0.70;;;;;;;9.32;82.61;96973.15;104862;1270;61295;-26
2023/11/06 03:18:19;;;;;;;1.60;0.80;;;;;;;9.44;81.37;96974.15;104850;1267;61125;-25
2023/11/06 03:28:25;;;;;;;0.90;0.70;;;;;;;8.66;83.36;96993.98;102571;1296;599471;-26
2023/11/06 03:30:52;;;;;;;0.90;0.60;;;;;;;8.52;84.33;96996.58;105120;1264;61187;-25
2023/11/06 03:33:20;;;;;;;3.20;0.80;;;;;;;9.05;83.29;97001.41;104925;1264;61143;-25
2023/11/06 03:35:47;;;;;;;2.90;0.80;;;;;;;9.32;81.51;97000.85;104825;1270;70962;-26
2023/11/06 03:38:15;;;;;;;4.10;1.40;;;;;;;9.19;81.31;97004.20;105171;1264;73023;-26
2023/11/06 03:40:43;;;;;;;1.20;0.80;;;;;;;8.92;82.27;97009.90;104872;1264;72065;-26
2023/11/06 03:50:51;;;;;;;1.00;0.70;;;;;;;8.81;83.61;97025.23;102568;1292;599936;-26
2023/11/06 03:53:18;;;;;;;0.70;0.70;;;;;;;8.81;83.16;97029.57;104727;1272;61270;-26
2023/11/06 03:55:46;;;;;;;1.10;0.80;;;;;;;8.65;83.23;97030.50;104866;1271;61159;-25
2023/11/06 03:58:14;;;;;;;1.70;0.90;;;;;;;8.29;85.14;97032.64;104880;1272;72280;-26
2023/11/06 04:08:21;;;;;;;1.20;0.70;;;;;;;8.48;84.65;97049.89;102590;1295;600310;-26
2023/11/06 04:10:49;;;;;;;1.20;0.80;;;;;;;8.26;85.39;97057.67;104822;1267;61183;-26
2023/11/06 04:13:17;;;;;;;1.60;0.60;;;;;;;8.11;86.20;97063.73;104889;1273;61071;-26
2023/11/06 04:15:45;;;;;;;2.30;0.60;;;;;;;7.95;87.03;97063.98;104823;1266;72255;-26
2023/11/06 04:25:52;;;;;;;1.80;0.70;;;;;;;8.60;83.89;97076.31;102638;1292;599767;-26
2023/11/06 04:28:20;;;;;;;1.10;0.80;;;;;;;8.37;84.50;97079.08;104843;1270;61059;-25
2023/11/06 04:30:47;;;;;;;0.80;0.50;;;;;;;8.38;84.54;97075.55;104846;1265;61039;-27
2023/11/06 04:33:15;;;;;;;1.30;1.10;;;;;;;8.76;83.67;97081.96;104806;1267;72194;-25
2023/11/06 04:35:43;;;;;;;0.60;0.50;;;;;;;9.07;82.11;97082.06;104815;1271;73178;-27
2023/11/06 04:45:51;;;;;;;0.90;0.60;;;;;;;8.72;82.95;97097.92;102533;1296;599504;-25
2023/11/06 04:48:18;;;;;;;1.40;0.70;;;;;;;9.21;81.46;97106.29;104846;1266;61129;-26
2023/11/06 04:50:46;;;;;;;1.80;0.70;;;;;;;9.48;79.74;97107.41;104842;1266;61113;-26
2023/11/06 04:53:14;;;;;;;0.50;0.50;;;;;;;9.38;79.16;97111.23;104773;1266;72282;-26
2023/11/06 04:55:41;;;;;;;1.10;0.80;;;;;;;9.20;79.76;97107.16;104780;1270;74334;-26
2023/11/06 04:58:09;;;;;;;1.20;0.60;;;;;;;9.05;80.11;97116.78;104677;1271;71769;-26
2023/11/06 05:00:36;;;;;;;0.90;0.50;;;;;;;8.83;81.07;97120.80;102586;1263;3357923;-25
2023/11/06 05:03:04;;;;;;;1.40;0.60;;;;;;;9.03;81.17;97126.69;104894;1271;61184;-25
2023/11/06 05:05:33;;;;;;;1.40;0.90;;;;;;;9.45;79.19;97128.16;104913;1269;71036;-25
2023/11/06 05:08:01;;;;;;;2.30;0.80;;;;;;;9.50;78.30;97123.98;105131;1268;73154;-26
2023/11/06 05:10:29;;;;;;;1.10;0.80;;;;;;;9.41;78.52;97130.35;104877;1265;72629;-25
2023/11/06 05:12:56;;;;;;;1.90;0.70;;;;;;;9.19;78.83;97139.31;105026;1264;61058;-26
2023/11/06 05:15:25;;;;;;;0.90;0.60;;;;;;;8.97;79.90;97143.82;104778;1266;61039;-26
2023/11/06 05:17:52;;;;;;;3.40;0.50;;;;;;;8.84;80.69;97149.70;105033;1263;71749;-26
2023/11/06 05:20:20;;;;;;;2.50;1.10;;;;;;;9.22;80.02;97155.88;104855;1265;74243;-26
2023/11/06 05:22:48;;;;;;;0.80;0.60;;;;;;;9.43;78.45;97157.27;105131;1266;71566;-26
2023/11/06 05:25:16;;;;;;;2.10;0.80;;;;;;;9.39;78.37;97161.01;104792;1269;61008;-26
2023/11/06 05:35:32;;;;;;;1.20;0.60;;;;;;;9.23;80.02;97183.83;102594;1292;600280;-27
2023/11/06 05:37:59;;;;;;;1.20;0.60;;;;;;;9.63;77.98;97185.33;104794;1266;61219;-27
2023/11/06 05:48:06;;;;;;;0.70;0.60;;;;;;;9.21;78.79;97209.27;102665;1291;600174;-25
2023/11/06 05:50:35;;;;;;;0.60;0.50;;;;;;;9.13;79.25;97213.11;105098;1266;61273;-27
2023/11/06 06:00:15;;;;;;;1.20;0.60;;;;;;;9.96;75.95;97222.22;102580;1290;615882;-25
2023/11/06 06:02:42;;;;;;;0.50;0.40;;;;;;;9.73;76.53;97224.99;105109;1264;61145;-27
2023/11/06 06:05:09;;;;;;;0.70;0.50;;;;;;;9.52;77.44;97228.77;105144;1263;61193;-27
2023/11/06 06:07:37;;;;;;;2.40;0.90;;;;;;;9.44;78.17;97231.67;105267;1263;72274;-28
2023/11/06 06:10:05;;;;;;;1.60;0.80;;;;;;;9.66;77.78;97231.46;105093;1263;73423;-28
2023/11/06 06:12:33;;;;;;;2.00;0.70;;;;;;;10.17;75.71;97227.46;102407;1272;3357492;-27
2023/11/06 06:15:01;;;;;;;1.20;0.80;;;;;;;10.29;74.81;97237.73;105233;1261;60937;-25
2023/11/06 06:17:29;;;;;;;3.10;1.00;;;;;;;10.24;74.85;97240.48;105166;1261;61146;-25
2023/11/06 06:19:56;;;;;;;0.80;0.80;;;;;;;10.14;75.04;97237.95;105109;1261;73401;-25
2023/11/06 06:22:23;;;;;;;1.10;0.90;;;;;;;10.10;75.39;97240.13;105201;1260;74340;-25
2023/11/06 06:24:50;;;;;;;0.60;0.50;;;;;;;10.07;75.91;97246.00;105050;1260;72199;-25
2023/11/06 06:27:17;;;;;;;1.30;0.70;;;;;;;9.90;76.54;97250.17;105150;1260;61039;-25
2023/11/06 06:29:45;;;;;;;1.60;0.70;;;;;;;9.86;76.60;97254.15;105581;1260;61160;-25
2023/11/06 06:32:14;;;;;;;0.70;0.70;;;;;;;9.87;77.26;97254.94;105581;1260;71467;-25
2023/11/06 06:34:41;;;;;;;0.60;0.60;;;;;;;10.33;75.65;97258.45;105638;1254;74319;-25
2023/11/06 06:37:11;;;;;;;1.60;0.70;;;;;;;10.67;73.68;97254.95;105390;1258;73494;-27
2023/11/06 06:39:37;;;;;;;0.70;0.50;;;;;;;10.65;73.96;97253.59;105595;1254;61235;-26
2023/11/06 06:42:05;;;;;;;1.70;0.60;;;;;;;10.68;73.42;97255.93;105595;1254;61696;-26
2023/11/06 06:44:32;;;;;;;1.40;0.80;;;;;;;10.61;74.38;97266.54;105546;1254;72019;-27
2023/11/06 06:46:59;;;;;;;0.60;0.60;;;;;;;10.65;73.85;97258.52;105618;1254;74276;-26
2023/11/06 06:49:26;;;;;;;0.60;0.50;;;;;;;10.64;73.56;97260.46;105573;1254;71724;-26
2023/11/06 06:51:53;;;;;;;1.00;0.60;;;;;;;10.60;74.30;97257.48;105607;1254;60968;-26
2023/11/06 06:54:20;;;;;;;0.80;0.70;;;;;;;10.64;74.07;97247.52;105563;1254;61720;-26
2023/11/06 06:56:49;;;;;;;1.20;0.80;;;;;;;10.53;74.37;97266.73;105606;1254;72876;-26
2023/11/06 06:59:16;;;;;;;1.40;0.90;;;;;;;10.39;74.74;97271.38;105271;1254;73684;-26
2023/11/06 07:01:43;;;;;;;1.80;0.70;;;;;;;10.38;75.28;97284.13;105438;1254;70705;-26
2023/11/06 07:04:09;;;;;;;0.80;0.60;;;;;;;10.53;75.46;97284.06;105455;1254;61189;-26
2023/11/06 07:06:36;;;;;;;1.20;0.60;;;;;;;10.98;73.86;97289.80;105451;1256;61154;-26
2023/11/06 07:09:04;;;;;;;0.90;0.60;;;;;;;11.35;71.57;97289.88;105372;1256;73313;-26
2023/11/06 07:11:32;;;;;;;0.70;0.60;;;;;;;11.51;70.94;97291.35;105658;1255;74398;-26
2023/11/06 07:13:59;;;;;;;0.50;0.50;;;;;;;11.58;70.76;97298.38;105566;1257;72472;-26
2023/11/06 07:16:26;;;;;;;1.40;0.60;;;;;;;11.62;70.37;97284.73;105649;1256;61153;-26
2023/11/06 07:18:53;;;;;;;0.90;0.50;;;;;;;11.60;69.84;97286.14;105705;1259;61137;-26
2023/11/06 07:21:20;;;;;;;0.90;0.60;;;;;;;11.57;69.97;97292.26;105602;1255;73025;-26
2023/11/06 07:23:47;;;;;;;1.60;0.70;;;;;;;11.67;69.96;97294.48;105582;1258;74327;-26
2023/11/06 07:26:14;;;;;;;0.50;0.40;;;;;;;11.72;70.03;97309.31;105447;1254;72810;-26
2023/11/06 07:28:41;;;;;;;0.80;0.60;;;;;;;11.70;69.33;97302.89;105353;1256;61045;-26
2023/11/06 07:31:08;;;;;;;0.80;0.70;;;;;;;11.62;69.98;97302.61;105556;1260;61106;-26
2023/11/06 07:33:38;;;;;;;1.10;0.70;;;;;;;11.62;70.42;97313.92;105555;1257;73002;-26
2023/11/06 07:36:06;;;;;;;0.70;0.50;;;;;;;11.61;69.57;97293.83;105620;1257;74343;-26
2023/11/06 07:38:33;;;;;;;0.70;0.60;;;;;;;11.62;69.67;97310.57;105268;1255;72697;-26
2023/11/06 07:41:00;;;;;;;0.60;0.50;;;;;;;11.72;69.47;97313.77;105623;1255;61058;-26
2023/11/06 07:43:27;;;;;;;1.90;0.60;;;;;;;11.82;68.46;97307.92;105666;1257;61141;-26
2023/11/06 07:45:54;;;;;;;2.80;0.80;;;;;;;11.86;68.29;97309.52;105667;1258;74266;-26
2023/11/06 07:48:21;;;;;;;0.80;0.50;;;;;;;12.04;68.31;97317.00;105685;1255;73762;-26
2023/11/06 07:50:48;;;;;;;0.60;0.40;;;;;;;12.18;67.72;97321.34;105479;1256;72494;-26
2023/11/06 07:53:15;;;;;;;1.10;0.50;;;;;;;12.22;67.29;97327.88;105585;1257;61576;-26
2023/11/06 07:55:42;;;;;;;1.00;0.70;;;;;;;12.27;66.90;97319.73;105641;1260;61055;-26
2023/11/06 07:58:09;;;;;;;0.60;0.50;;;;;;;12.35;67.48;97342.88;105713;1254;73030;-26
2023/11/06 08:00:38;;;;;;;1.30;0.40;;;;;;;12.44;66.30;97301.48;105457;1258;74283;-26
2023/11/06 08:03:16;;;;;;;0.50;0.50;;;;;;;12.52;66.26;97336.89;105516;1258;71401;-26
2023/11/06 08:05:43;;;;;;;1.00;0.50;;;;;;;12.52;65.69;97338.51;105503;1256;61137;-26
2023/11/06 08:08:10;;;;;;;0.70;0.50;;;;;;;12.43;66.43;97340.02;105555;1260;61156;-26
2023/11/06 08:10:37;;;;;;;0.50;0.40;;;;;;;12.57;66.75;97346.09;105582;1254;72465;-26
2023/11/06 08:13:04;;;;;;;0.90;0.70;;;;;;;12.48;66.16;97345.19;105624;1257;73310;-26
2023/11/06 08:15:31;;;;;;;0.70;0.50;;;;;;;12.46;66.85;97360.35;105605;1257;73092;-26
2023/11/06 08:17:58;;;;;;;0.80;0.50;;;;;;;12.58;65.94;97355.70;105642;1257;61143;-26
2023/11/06 08:20:26;;;;;;;0.80;0.60;;;;;;;12.65;65.65;97368.36;105617;1256;61105;-27
2023/11/06 08:22:53;;;;;;;1.90;0.50;;;;;;;12.77;65.03;97367.29;105577;1254;74797;-26
2023/11/06 08:25:24;;;;;;;1.00;0.60;;;;;;;12.85;65.39;97387.95;105482;1257;75773;-27
2023/11/06 08:27:52;;;;;;;0.60;0.40;;;;;;;12.94;64.72;97381.42;105628;1255;71713;-26
2023/11/06 08:30:19;;;;;;;1.50;0.70;;;;;;;12.93;64.44;97384.52;105550;1257;61077;-26
2023/11/06 08:32:46;;;;;;;0.40;0.40;;;;;;;13.11;64.81;97395.33;105597;1257;61121;-26
2023/11/06 08:35:13;;;;;;;0.60;0.60;;;;;;;13.32;64.31;97399.39;105609;1254;73758;-26
2023/11/06 08:37:41;;;;;;;0.50;0.50;;;;;;;13.47;63.56;97400.56;105629;1255;74625;-26
2023/11/06 08:40:08;;;;;;;0.80;0.60;;;;;;;13.48;62.32;97395.88;105671;1254;73790;-26
2023/11/06 08:42:37;;;;;;;1.30;0.60;;;;;;;13.48;62.77;97403.16;105652;1255;61581;-26
2023/11/06 08:45:04;;;;;;;0.60;0.40;;;;;;;13.68;61.82;97407.68;105527;1254;61199;-26
2023/11/06 08:47:32;;;;;;;0.60;0.50;;;;;;;13.75;61.62;97403.02;105654;1254;72930;-26
2023/11/06 08:50:00;;;;;;;1.10;0.50;;;;;;;13.46;62.16;97401.68;105631;1258;75338;-26
2023/11/06 08:52:27;;;;;;;1.10;0.60;;;;;;;13.48;61.81;97404.53;105657;1257;71928;-26
2023/11/06 08:54:54;;;;;;;1.30;0.60;;;;;;;13.40;62.44;97409.35;105607;1257;61048;-26
2023/11/06 08:57:21;;;;;;;0.50;0.50;;;;;;;13.41;62.48;97410.70;105469;1259;61176;-26
2023/11/06 08:59:48;;;;;;;3.50;0.60;;;;;;;13.33;62.34;97418.60;105590;1255;73327;-26
2023/11/06 09:02:16;;;;;;;1.00;0.70;;;;;;;13.28;63.17;97413.98;105320;1258;73743;-26
2023/11/06 09:04:45;;;;;;;1.70;0.60;;;;;;;13.34;63.24;97422.98;105454;1258;72654;-26
2023/11/06 09:07:14;;;;;;;1.30;0.60;;;;;;;13.47;62.79;97421.84;105511;1257;61819;-26
2023/11/06 09:09:41;;;;;;;0.90;0.60;;;;;;;13.34;62.62;97426.48;105607;1258;61166;-26
2023/11/06 09:12:08;;;;;;;0.60;0.40;;;;;;;13.24;63.08;97430.19;105650;1255;73063;-26
2023/11/06 09:14:34;;;;;;;0.90;0.50;;;;;;;13.29;63.42;97436.40;105623;1259;74271;-26
2023/11/06 09:17:03;;;;;;;0.50;0.50;;;;;;;13.29;62.55;97424.05;105653;1254;72344;-27
2023/11/06 09:19:30;;;;;;;1.70;0.70;;;;;;;13.52;62.69;97423.63;105673;1255;61063;-27
2023/11/06 09:21:57;;;;;;;1.10;0.60;;;;;;;13.78;61.56;97434.05;105606;1260;61743;-26
2023/11/06 09:24:24;;;;;;;0.70;0.60;;;;;;;13.73;61.59;97446.95;105647;1257;73066;-26
2023/11/06 09:26:51;;;;;;;3.30;0.80;;;;;;;13.55;61.92;97435.97;105652;1259;74682;-26
2023/11/06 09:29:18;;;;;;;0.50;0.50;;;;;;;13.27;63.27;97447.77;105625;1254;72670;-26
2023/11/06 09:31:45;;;;;;;1.80;0.70;;;;;;;13.06;64.04;97451.83;105641;1257;61086;-26
2023/11/06 09:34:13;;;;;;;0.70;0.50;;;;;;;12.82;63.56;97440.40;105669;1257;61112;-26
2023/11/06 09:36:40;;;;;;;0.50;0.40;;;;;;;12.69;63.76;97447.98;105657;1254;73064;-26
2023/11/06 09:39:09;;;;;;;1.10;0.60;;;;;;;12.70;63.84;97451.64;105632;1260;75554;-26
2023/11/06 09:41:37;;;;;;;0.60;0.50;;;;;;;12.65;64.28;97445.28;105652;1255;73021;-26
2023/11/06 09:44:05;;;;;;;0.70;0.50;;;;;;;12.64;65.12;97461.07;105658;1258;61130;-26
2023/11/06 09:46:35;;;;;;;0.50;0.50;;;;;;;12.39;65.42;97446.50;105633;1260;61175;-27
2023/11/06 09:49:16;;;;;;;1.10;0.60;;;;;;;12.30;65.90;97462.59;105647;1259;71214;-26
2023/11/06 09:51:50;;;;;;;1.60;0.50;;;;;;;12.34;66.50;97479.23;105545;1257;76111;-26
2023/11/06 09:54:18;;;;;;;1.30;0.60;;;;;;;12.28;65.81;97461.60;105514;1262;74082;-26
2023/11/06 09:56:45;;;;;;;1.40;0.50;;;;;;;12.23;66.31;97478.69;105306;1257;61077;-25
2023/11/06 09:59:13;;;;;;;0.90;0.50;;;;;;;12.19;66.68;97480.45;105675;1256;61115;-27
2023/11/06 10:01:40;;;;;;;0.70;0.50;;;;;;;12.13;66.93;97481.91;105656;1257;73526;-26
2023/11/06 10:04:08;;;;;;;0.80;0.50;;;;;;;12.15;67.01;97493.73;105578;1257;74213;-25
2023/11/06 10:06:35;;;;;;;0.50;0.50;;;;;;;12.12;66.68;97489.52;105650;1256;73871;-26
2023/11/06 10:09:22;;;;;;;0.40;0.40;;;;;;;12.14;66.09;97487.91;105590;1257;60991;-27
2023/11/06 10:11:50;;;;;;;2.00;0.60;;;;;;;12.44;64.68;97474.84;105625;1257;61157;-27
2023/11/06 10:14:17;;;;;;;0.50;0.40;;;;;;;12.64;63.41;97483.48;105536;1257;73576;-26
2023/11/06 10:16:44;;;;;;;2.90;0.70;;;;;;;12.87;61.82;97478.54;105613;1258;75164;-26
2023/11/06 10:19:13;;;;;;;0.70;0.50;;;;;;;13.01;61.53;97486.05;105653;1257;74032;-27
2023/11/06 10:21:43;;;;;;;2.80;0.60;;;;;;;12.92;61.76;97488.58;105540;1259;61157;-27
2023/11/06 10:24:11;;;;;;;1.10;0.40;;;;;;;12.75;62.18;97490.05;105491;1256;61141;-25
2023/11/06 10:26:39;;;;;;;1.10;0.50;;;;;;;12.59;63.04;97509.52;105607;1258;73791;-35
2023/11/06 10:29:10;;;;;;;2.10;0.40;;;;;;;12.51;63.51;97510.75;105625;1257;73926;-27
2023/11/06 10:31:41;;;;;;;0.30;0.30;;;;;;;13.00;62.66;97511.36;105669;1258;71175;-26
2023/11/06 10:34:29;;;;;;;0.70;0.50;;;;;;;13.20;60.92;97509.66;105478;1256;61521;-26
2023/11/06 10:37:00;;;;;;;0.50;0.50;;;;;;;13.55;59.93;97509.41;105655;1263;61163;-27
2023/11/06 10:39:29;;;;;;;1.40;0.60;;;;;;;13.66;59.96;97523.49;105645;1257;75033;-26
2023/11/06 10:42:02;;;;;;;0.20;0.20;;;;;;;13.39;60.64;97528.16;105645;1260;73886;-26
2023/11/06 10:44:31;;;;;;;1.50;0.60;;;;;;;13.17;61.10;97541.04;105478;1258;72754;-26
2023/11/06 10:47:08;;;;;;;0.40;0.40;;;;;;;13.04;61.61;97537.49;105517;1262;61186;-28
2023/11/06 10:49:42;;;;;;;0.40;0.30;;;;;;;12.76;61.96;97542.66;105606;1255;61131;-26
2023/11/06 10:52:10;;;;;;;1.30;0.60;;;;;;;12.62;62.02;97544.14;105474;1262;72953;-27
2023/11/06 10:54:38;;;;;;;2.60;0.50;;;;;;;12.58;62.51;97542.09;105865;1251;75561;-26
2023/11/06 10:57:07;;;;;;;1.00;0.50;;;;;;;12.74;62.79;97550.11;105607;1254;72340;-26
2023/11/06 10:59:34;;;;;;;0.90;0.70;;;;;;;12.84;62.57;97557.20;105817;1257;61072;-26
2023/11/06 11:02:02;;;;;;;0.70;0.40;;;;;;;12.87;61.43;97547.66;105962;1251;61154;-27
2023/11/06 11:04:30;;;;;;;0.40;0.40;;;;;;;12.92;62.70;97568.23;105788;1259;72983;-27
2023/11/06 11:06:59;;;;;;;0.70;0.50;;;;;;;12.73;62.60;97571.23;105990;1251;73951;-26
2023/11/06 11:09:27;;;;;;;2.10;0.60;;;;;;;12.77;62.15;97566.10;105744;1251;72699;-27
2023/11/06 11:11:54;;;;;;;0.40;0.40;;;;;;;12.99;61.89;97578.43;105993;1251;61182;-26
2023/11/06 11:14:21;;;;;;;0.60;0.40;;;;;;;13.31;61.38;97588.82;105981;1255;61253;-28
2023/11/06 11:16:52;;;;;;;3.30;0.60;;;;;;;13.62;59.94;97584.84;106004;1252;73721;-25
2023/11/06 11:19:33;;;;;;;0.40;0.40;;;;;;;13.29;60.10;97601.85;105726;1251;73653;-26
2023/11/06 11:22:03;;;;;;;0.60;0.40;;;;;;;13.10;60.78;97601.95;105747;1251;73883;-26
2023/11/06 11:24:44;;;;;;;0.80;0.40;;;;;;;13.12;62.03;97617.75;105913;1251;61057;-26
2023/11/06 11:27:13;;;;;;;0.70;0.40;;;;;;;13.02;60.81;97599.48;105926;1257;61124;-26
2023/11/06 11:29:55;;;;;;;0.60;0.40;;;;;;;13.01;61.35;97623.03;105987;1251;73165;-26
2023/11/06 11:32:42;;;;;;;0.40;0.40;;;;;;;12.70;60.74;97610.30;105978;1251;75329;-26
2023/11/06 11:35:10;;;;;;;1.70;0.50;;;;;;;12.33;62.48;97634.57;105881;1257;71719;-26
2023/11/06 11:37:37;;;;;;;0.80;0.40;;;;;;;12.26;63.48;97635.98;105942;1251;61678;-26
2023/11/06 11:40:07;;;;;;;0.60;0.40;;;;;;;12.45;62.63;97647.13;105659;1259;61134;-25
2023/11/06 11:42:34;;;;;;;0.60;0.40;;;;;;;12.33;62.63;97639.23;105903;1251;73652;-26
2023/11/06 11:45:06;;;;;;;1.20;0.50;;;;;;;12.17;61.29;97630.36;105853;1256;74088;-26
2023/11/06 11:47:47;;;;;;;0.60;0.50;;;;;;;12.02;61.57;97645.88;105990;1251;72977;-26
2023/11/06 11:50:26;;;;;;;0.40;0.30;;;;;;;11.86;61.73;97638.88;105920;1252;61116;-25
2023/11/06 11:52:54;;;;;;;0.70;0.40;;;;;;;11.80;62.85;97658.70;105957;1257;61086;-25
2023/11/06 11:55:35;;;;;;;1.20;0.50;;;;;;;11.79;63.48;97660.05;106016;1251;73974;-26
2023/11/06 11:58:14;;;;;;;3.00;2.00;;;;;;;11.79;64.06;97670.55;106036;1251;72285;-26
2023/11/06 12:00:45;;;;;;;0.30;0.30;;;;;;;11.72;64.08;97668.41;105861;1257;73789;-25
2023/11/06 12:03:16;;;;;;;0.50;0.50;;;;;;;11.71;64.58;97685.63;105997;1252;61092;-26
2023/11/06 12:05:46;;;;;;;3.60;0.50;;;;;;;11.72;64.65;97687.77;105871;1257;61706;-26
2023/11/06 12:08:17;;;;;;;0.50;0.40;;;;;;;11.74;65.06;97692.36;105892;1260;73011;-26
2023/11/06 12:10:46;;;;;;;1.00;0.40;;;;;;;11.75;64.19;97686.72;105944;1256;75596;-26
2023/11/06 12:13:13;;;;;;;0.80;0.50;;;;;;;11.73;63.18;97696.63;105704;1251;72862;-25
2023/11/06 12:15:40;;;;;;;1.50;0.50;;;;;;;11.76;62.88;97702.30;105804;1251;61098;-25
2023/11/06 12:18:08;;;;;;;5.40;0.60;;;;;;;11.74;62.81;97703.89;105965;1257;61173;-25
2023/11/06 12:20:35;;;;;;;0.40;0.30;;;;;;;11.69;62.70;97711.66;105919;1251;75309;-25
2023/11/06 12:23:02;;;;;;;0.50;0.40;;;;;;;11.70;63.42;97721.22;105965;1251;74919;-26
2023/11/06 12:25:31;;;;;;;0.70;0.60;;;;;;;11.70;63.00;97719.14;105951;1251;72776;-26
2023/11/06 12:28:16;;;;;;;1.30;0.30;;;;;;;11.68;63.02;97723.28;105927;1251;61040;-25
2023/11/06 12:30:43;;;;;;;0.50;0.40;;;;;;;11.67;62.57;97725.16;105686;1251;61224;-25
2023/11/06 12:33:18;;;;;;;1.30;0.50;;;;;;;11.65;62.73;97730.90;106006;1251;74221;-25
2023/11/06 12:35:45;;;;;;;0.30;0.30;;;;;;;11.66;62.08;97726.59;105677;1252;73778;-26
2023/11/06 12:38:13;;;;;;;0.30;0.30;;;;;;;11.70;61.31;97736.15;105931;1251;72291;-25
2023/11/06 12:40:44;;;;;;;0.50;0.40;;;;;;;11.72;61.19;97738.80;105817;1251;61257;-25
2023/11/06 12:43:15;;;;;;;0.40;0.40;;;;;;;11.78;61.13;97738.42;105508;1259;61544;-25
2023/11/06 12:45:43;;;;;;;0.60;0.50;;;;;;;11.82;60.83;97747.94;105665;1255;74197;-25
2023/11/06 12:48:28;;;;;;;0.50;0.50;;;;;;;11.83;60.88;97752.66;105894;1251;74141;-25
2023/11/06 12:51:04;;;;;;;0.50;0.50;;;;;;;11.88;60.46;97755.23;105850;1252;72355;-26
2023/11/06 12:53:33;;;;;;;0.40;0.40;;;;;;;11.87;59.72;97756.54;105869;1251;61049;-26
2023/11/06 12:56:00;;;;;;;1.40;0.50;;;;;;;11.82;59.14;97740.80;105978;1257;61154;-26
2023/11/06 12:58:28;;;;;;;1.40;0.70;;;;;;;11.83;59.10;97751.48;105826;1251;74129;-26
2023/11/06 13:00:55;;;;;;;0.40;0.40;;;;;;;11.83;58.68;97761.33;105725;1251;74465;-26
2023/11/06 13:03:27;;;;;;;1.30;0.60;;;;;;;11.82;59.18;97773.33;105747;1260;72857;-26
2023/11/06 13:05:57;;;;;;;2.60;0.40;;;;;;;11.83;59.25;97773.23;105726;1259;61554;-27
2023/11/06 13:08:32;;;;;;;0.70;0.50;;;;;;;11.82;58.66;97771.20;105730;1251;61119;-24
2023/11/06 13:10:59;;;;;;;0.80;0.50;;;;;;;11.81;57.42;97753.09;105880;1251;75130;-24
2023/11/06 13:13:30;;;;;;;0.80;0.50;;;;;;;11.79;57.03;97761.47;105927;1251;74600;-24
2023/11/06 13:15:58;;;;;;;0.60;0.40;;;;;;;11.78;57.55;97779.46;105744;1257;72672;-24
2023/11/06 13:18:27;;;;;;;1.40;0.40;;;;;;;11.72;57.96;97780.21;105831;1252;61141;-26
2023/11/06 13:20:55;;;;;;;4.50;0.60;;;;;;;11.75;57.67;97776.17;105655;1251;61244;-24
2023/11/06 13:23:22;;;;;;;0.40;0.40;;;;;;;11.89;57.27;97782.93;105866;1251;73453;-25
2023/11/06 13:25:51;;;;;;;0.40;0.40;;;;;;;12.04;57.19;97788.48;105689;1259;75625;-25
2023/11/06 13:28:22;;;;;;;2.00;0.80;;;;;;;12.13;56.64;97781.30;105899;1255;72361;-24